Time;durP1;ratioP1;P1;durP2;ratioP2;P2;SDS_P1;SDS_P2;PMS_P1;PMS_P2;Temp;Humidity;BMP_temperature;BMP_pressure;BME280_temperature;BME280_humidity;BME280_pressure;Samples;Min_cycle;Max_cycle;Signal;HPM_P1;HPM_P2
2024/01/12 00:01:02;;;;;;;;;;;;;;;22.84;25.56;103379.13;5035362;28;19984;-76
2024/01/12 00:03:27;;;;;;;;;;;;;;;22.84;25.72;103378.28;5031169;28;20362;-76
2024/01/12 00:05:53;;;;;;;;;;;;;;;22.86;25.83;103368.19;4973356;28;1751355;-76
2024/01/12 00:08:18;;;;;;;;;;;;;;;22.87;25.42;103368.03;5039550;28;19948;-76
2024/01/12 00:10:43;;;;;;;;;;;;;;;22.87;25.55;103372.59;5034343;28;19913;-76
2024/01/12 00:13:08;;;;;;;;;;;;;;;22.86;25.62;103363.59;5039573;28;19912;-76
2024/01/12 00:15:34;;;;;;;;;;;;;;;22.85;25.69;103364.59;5044412;28;19917;-76
2024/01/12 00:17:59;;;;;;;;;;;;;;;22.83;25.46;103369.28;5046777;28;20468;-76
2024/01/12 00:20:24;;;;;;;;;;;;;;;22.85;25.49;103364.59;5047899;28;19913;-76
2024/01/12 00:22:50;;;;;;;;;;;;;;;22.85;25.61;103377.28;5041801;28;19998;-76
2024/01/12 00:25:15;;;;;;;;;;;;;;;22.84;25.63;103387.28;5034935;28;19917;-77
2024/01/12 00:27:40;;;;;;;;;;;;;;;22.85;25.60;103394.44;5036973;28;19924;-77
2024/01/12 00:30:07;;;;;;;;;;;;;;;22.86;25.39;103396.16;5041171;28;20370;-76
2024/01/12 00:32:33;;;;;;;;;;;;;;;22.85;25.46;103396.28;5039538;28;19917;-77
2024/01/12 00:34:58;;;;;;;;;;;;;;;22.87;25.59;103392.44;5035895;28;19944;-74
2024/01/12 00:37:23;;;;;;;;;;;;;;;22.90;25.54;103392.22;5033297;28;20380;-76
2024/01/12 00:39:48;;;;;;;;;;;;;;;22.90;25.56;103400.34;5030361;28;19917;-76
2024/01/12 00:42:13;;;;;;;;;;;;;;;22.91;25.40;103395.78;5054067;28;19980;-76
2024/01/12 00:44:39;;;;;;;;;;;;;;;22.93;25.66;103394.63;5042971;28;19917;-76
2024/01/12 00:47:04;;;;;;;;;;;;;;;22.93;25.23;103407.34;5040061;28;20328;-76
2024/01/12 00:49:29;;;;;;;;;;;;;;;22.92;25.64;103402.91;5041108;28;19992;-77
2024/01/12 00:51:54;;;;;;;;;;;;;;;22.92;25.65;103401.06;5031449;28;19914;-76
2024/01/12 00:54:26;;;;;;;;;;;;;;;22.92;25.27;103409.19;5030594;28;19928;-77
2024/01/12 00:56:51;;;;;;;;;;;;;;;22.92;25.43;103409.19;5042650;28;19917;-76
2024/01/12 00:59:16;;;;;;;;;;;;;;;22.93;25.47;103404.63;5042071;28;19935;-76
2024/01/12 01:01:42;;;;;;;;;;;;;;;22.92;25.56;103411.06;5034570;28;19913;-76
2024/01/12 01:04:07;;;;;;;;;;;;;;;22.90;25.58;103411.19;5038914;28;20012;-76
2024/01/12 01:06:32;;;;;;;;;;;;;;;22.93;25.35;103402.78;5033807;28;19922;-77
2024/01/12 01:08:57;;;;;;;;;;;;;;;22.95;25.71;103402.66;5035627;28;20356;-77
2024/01/12 01:11:22;;;;;;;;;;;;;;;22.95;25.47;103408.09;5039886;28;19913;-76
2024/01/12 01:13:47;;;;;;;;;;;;;;;22.93;25.33;103400.06;5039157;28;19953;-76
2024/01/12 01:16:13;;;;;;;;;;;;;;;22.91;25.60;103393.06;5035047;28;19940;-76
2024/01/12 01:18:38;;;;;;;;;;;;;;;22.88;25.66;103390.59;5039406;28;19920;-76
2024/01/12 01:21:03;;;;;;;;;;;;;;;22.90;25.43;103386.78;5041644;28;19927;-76
2024/01/12 01:23:28;;;;;;;;;;;;;;;22.91;25.49;103377.66;5039977;28;19943;-76
2024/01/12 01:25:54;;;;;;;;;;;;;;;22.91;25.71;103387.66;5046728;28;19924;-76
2024/01/12 01:28:19;;;;;;;;;;;;;;;22.91;25.67;103384.94;5047428;28;19913;-76
2024/01/12 01:30:44;;;;;;;;;;;;;;;22.98;25.52;103387.94;5048229;28;19945;-76
2024/01/12 01:33:09;;;;;;;;;;;;;;;22.98;25.74;103390.66;5039981;28;19918;-76
2024/01/12 01:35:35;;;;;;;;;;;;;;;22.99;25.58;103392.41;5038330;28;19917;-76
2024/01/12 01:38:00;;;;;;;;;;;;;;;22.98;25.63;103393.38;5039043;28;19921;-76
2024/01/12 01:40:25;;;;;;;;;;;;;;;22.99;25.52;103390.53;5036148;28;19980;-76
2024/01/12 01:42:50;;;;;;;;;;;;;;;23.03;25.39;103391.13;5030823;28;19977;-76
2024/01/12 01:45:16;;;;;;;;;;;;;;;23.02;25.38;103378.53;5032818;28;19917;-76
2024/01/12 01:47:41;;;;;;;;;;;;;;;23.01;25.57;103382.25;5038809;28;19913;-76
2024/01/12 01:50:07;;;;;;;;;;;;;;;23.01;25.28;103390.41;5034522;28;19913;-76
2024/01/12 01:52:32;;;;;;;;;;;;;;;22.98;25.70;103391.53;5039723;28;19924;-75
2024/01/12 01:54:57;;;;;;;;;;;;;;;23.00;25.41;103391.41;5045134;28;19912;-76
2024/01/12 01:57:23;;;;;;;;;;;;;;;23.00;25.67;103389.53;5047408;28;19921;-76
2024/01/12 01:59:48;;;;;;;;;;;;;;;23.01;25.41;103391.25;5048514;28;19966;-76
2024/01/12 02:02:13;;;;;;;;;;;;;;;23.02;25.63;103383.97;5048370;28;20305;-76
2024/01/12 02:04:38;;;;;;;;;;;;;;;23.00;25.56;103381.41;5039253;28;19988;-76
2024/01/12 02:07:04;;;;;;;;;;;;;;;22.95;25.66;103379.09;5037093;28;19917;-76
2024/01/12 02:09:31;;;;;;;;;;;;;;;22.93;25.64;103380.22;5041810;28;19913;-76
2024/01/12 02:11:56;;;;;;;;;;;;;;;22.89;25.82;103376.88;5036971;28;19923;-75
2024/01/12 02:14:22;;;;;;;;;;;;;;;22.90;25.67;103381.38;5039695;28;19980;-75
2024/01/12 02:16:47;;;;;;;;;;;;;;;22.88;25.87;103377.03;5037483;28;19914;-76
2024/01/12 02:19:12;;;;;;;;;;;;;;;22.87;25.89;103373.44;5034043;28;19917;-77
2024/01/12 02:21:37;;;;;;;;;;;;;;;22.85;25.64;103375.47;5041642;28;19916;-76
2024/01/12 02:24:02;;;;;;;;;;;;;;;22.86;25.69;103366.31;5051396;28;19917;-76
2024/01/12 02:26:28;;;;;;;;;;;;;;;22.88;25.74;103371.59;5039170;28;19922;-76
2024/01/12 02:28:53;;;;;;;;;;;;;;;22.87;25.61;103369.88;5041746;28;19959;-76
2024/01/12 02:31:18;;;;;;;;;;;;;;;22.88;25.85;103371.59;5038924;28;19976;-76
2024/01/12 02:33:43;;;;;;;;;;;;;;;22.87;25.54;103364.47;5031205;28;19936;-75
2024/01/12 02:36:08;;;;;;;;;;;;;;;22.88;25.49;103369.75;5040993;28;19917;-77
2024/01/12 02:38:33;;;;;;;;;;;;;;;22.89;25.61;103376.00;5038585;28;19979;-76
2024/01/12 02:40:58;;;;;;;;;;;;;;;22.90;25.82;103375.94;5040913;28;19939;-77
2024/01/12 02:43:24;;;;;;;;;;;;;;;22.92;25.66;103382.06;5036879;28;19917;-76
2024/01/12 02:45:49;;;;;;;;;;;;;;;22.95;25.76;103379.09;5040961;28;19918;-76
2024/01/12 02:48:14;;;;;;;;;;;;;;;22.95;25.50;103379.09;5033815;28;19921;-76
2024/01/12 02:50:39;;;;;;;;;;;;;;;23.01;25.39;103376.81;5042692;28;19921;-76
2024/01/12 02:53:04;;;;;;;;;;;;;;;22.98;25.39;103372.56;5043388;28;19963;-74
2024/01/12 02:55:30;;;;;;;;;;;;;;;23.00;25.50;103377.84;5036861;28;19917;-75
2024/01/12 02:57:55;;;;;;;;;;;;;;;22.97;25.75;103368.09;5038109;28;19981;-76
2024/01/12 03:00:20;;;;;;;;;;;;;;;22.98;25.53;103367.13;5043054;28;19917;-76
2024/01/12 03:02:45;;;;;;;;;;;;;;;23.00;25.49;103359.69;5036078;28;19917;-76
2024/01/12 03:05:10;;;;;;;;;;;;;;;23.00;25.44;103365.13;5046816;28;19997;-76
2024/01/12 03:07:37;;;;;;;;;;;;;;;23.01;25.79;103355.97;5046224;28;19916;-76
2024/01/12 03:10:03;;;;;;;;;;;;;;;23.04;25.40;103357.56;5050247;28;19923;-76
2024/01/12 03:12:28;;;;;;;;;;;;;;;23.09;25.59;103352.59;5046390;28;19982;-76
2024/01/12 03:14:53;;;;;;;;;;;;;;;23.12;25.58;103357.75;5037811;28;19917;-76
2024/01/12 03:17:18;;;;;;;;;;;;;;;23.16;25.31;103351.03;5042042;28;20018;-76
2024/01/12 03:19:43;;;;;;;;;;;;;;;23.17;25.23;103347.31;5037985;28;19923;-76
2024/01/12 03:22:09;;;;;;;;;;;;;;;23.16;25.43;103356.47;5034803;28;19924;-76
2024/01/12 03:24:34;;;;;;;;;;;;;;;23.22;25.45;103355.06;5033581;28;19917;-74
2024/01/12 03:26:59;;;;;;;;;;;;;;;23.25;25.25;103363.78;5038236;28;19920;-75
2024/01/12 03:29:24;;;;;;;;;;;;;;;23.26;25.34;103351.06;5039253;28;19960;-76
2024/01/12 03:31:49;;;;;;;;;;;;;;;23.27;25.04;103356.34;5037518;28;19913;-76
2024/01/12 03:34:14;;;;;;;;;;;;;;;23.31;25.44;103363.22;5040846;28;20313;-76
2024/01/12 03:36:40;;;;;;;;;;;;;;;23.35;25.25;103353.81;5046510;28;19922;-76
2024/01/12 03:39:05;;;;;;;;;;;;;;;23.40;25.26;103354.22;5045557;28;19975;-77
2024/01/12 03:41:30;;;;;;;;;;;;;;;23.45;25.12;103357.41;5047130;28;20016;-76
2024/01/12 03:43:55;;;;;;;;;;;;;;;23.50;25.06;103356.13;5040477;28;19920;-76
2024/01/12 03:46:20;;;;;;;;;;;;;;;23.54;24.82;103355.72;5036634;28;19971;-76
2024/01/12 03:48:46;;;;;;;;;;;;;;;23.59;25.05;103355.28;5037108;28;19920;-76
2024/01/12 03:51:11;;;;;;;;;;;;;;;23.62;24.70;103353.16;5040284;28;19913;-77
2024/01/12 03:53:36;;;;;;;;;;;;;;;23.65;24.87;103350.16;5039399;28;19925;-77
2024/01/12 03:56:02;;;;;;;;;;;;;;;23.66;24.93;103354.63;5036919;28;19917;-76
2024/01/12 03:58:28;;;;;;;;;;;;;;;23.69;24.66;103351.59;5034041;28;20417;-76
2024/01/12 04:00:53;;;;;;;;;;;;;;;23.70;24.55;103347.03;5034295;28;19913;-75
2024/01/12 04:03:18;;;;;;;;;;;;;;;23.68;24.75;103343.59;5045805;28;19921;-75
2024/01/12 04:05:43;;;;;;;;;;;;;;;23.71;24.50;103347.91;5039867;28;19928;-76
2024/01/12 04:08:08;;;;;;;;;;;;;;;23.71;24.70;103347.91;5041144;28;20019;-76
2024/01/12 04:10:34;;;;;;;;;;;;;;;23.74;24.79;103344.88;5040108;28;19921;-76
2024/01/12 04:12:59;;;;;;;;;;;;;;;23.77;24.54;103350.03;5033260;28;19917;-76
2024/01/12 04:15:24;;;;;;;;;;;;;;;23.76;24.59;103335.59;5037475;28;20673;-76
2024/01/12 04:17:49;;;;;;;;;;;;;;;23.78;24.80;103325.44;5040962;28;19925;-76
2024/01/12 04:20:14;;;;;;;;;;;;;;;23.78;24.75;103319.16;5045364;28;19917;-76
2024/01/12 04:22:39;;;;;;;;;;;;;;;23.77;24.54;103312.88;5034796;28;19917;-76
2024/01/12 04:25:05;;;;;;;;;;;;;;;23.76;24.55;103315.75;5039496;28;19917;-76
2024/01/12 04:27:30;;;;;;;;;;;;;;;23.74;24.43;103317.72;5036651;28;19913;-76
2024/01/12 04:29:55;;;;;;;;;;;;;;;23.73;24.73;103313.31;5037708;28;19952;-76
2024/01/12 04:32:20;;;;;;;;;;;;;;;23.72;24.79;103309.72;5041515;28;19917;-76
2024/01/12 04:34:46;;;;;;;;;;;;;;;23.71;24.58;103309.88;5039676;28;20574;-76
2024/01/12 04:37:11;;;;;;;;;;;;;;;23.71;24.62;103304.44;5034457;28;19945;-76
2024/01/12 04:39:36;;;;;;;;;;;;;;;23.73;24.64;103308.72;5039823;28;19947;-76
2024/01/12 04:42:01;;;;;;;;;;;;;;;23.76;24.72;103302.16;5040228;28;19993;-75
2024/01/12 04:44:26;;;;;;;;;;;;;;;23.77;24.74;103306.59;5041339;28;19925;-77
2024/01/12 04:46:51;;;;;;;;;;;;;;;23.76;24.58;103305.72;5045912;28;19913;-77
2024/01/12 04:49:17;;;;;;;;;;;;;;;23.75;24.82;103305.88;5049964;28;20047;-76
2024/01/12 04:51:42;;;;;;;;;;;;;;;23.74;24.60;103313.16;5048238;28;19939;-76
2024/01/12 04:54:07;;;;;;;;;;;;;;;23.27;24.78;103226.06;5041036;28;20366;-76
2024/01/12 04:56:32;;;;;;;;;;;;;;;23.75;24.72;103305.88;5035805;28;19952;-75
2024/01/12 04:58:57;;;;;;;;;;;;;;;23.76;24.53;103313.88;5037386;28;19913;-76
2024/01/12 05:01:22;;;;;;;;;;;;;;;23.77;24.58;103315.59;5038410;28;19925;-76
2024/01/12 05:03:48;;;;;;;;;;;;;;;23.79;24.77;103319.03;5032406;28;19918;-77
2024/01/12 05:06:13;;;;;;;;;;;;;;;23.79;24.75;103320.88;5037698;28;20277;-76
2024/01/12 05:08:38;;;;;;;;;;;;;;;23.79;24.59;103321.75;5037571;28;19945;-76
2024/01/12 05:11:03;;;;;;;;;;;;;;;23.78;24.68;103322.72;5035552;28;19944;-76
2024/01/12 05:13:29;;;;;;;;;;;;;;;23.80;24.65;103317.16;5037730;28;20008;-76
2024/01/12 05:15:54;;;;;;;;;;;;;;;23.82;24.74;103316.00;5041913;28;20392;-76
2024/01/12 05:18:19;;;;;;;;;;;;;;;23.34;24.46;103234.50;5043200;28;19939;-75
2024/01/12 05:20:45;;;;;;;;;;;;;;;23.78;24.74;103317.28;5044603;28;19989;-78
2024/01/12 05:23:10;;;;;;;;;;;;;;;23.74;24.36;103317.72;5042863;28;19962;-76
2024/01/12 05:25:35;;;;;;;;;;;;;;;23.66;24.69;103310.28;5037595;28;19924;-77
2024/01/12 05:28:00;;;;;;;;;;;;;;;23.56;24.58;103322.97;5038577;28;19917;-77
2024/01/12 05:30:25;;;;;;;;;;;;;;;23.44;24.89;103316.81;5041336;28;20389;-76
2024/01/12 05:32:51;;;;;;;;;;;;;;;23.36;25.05;103322.97;5042631;28;19920;-76
2024/01/12 05:35:16;;;;;;;;;;;;;;;23.28;25.25;103322.81;5040606;28;19980;-77
2024/01/12 05:37:41;;;;;;;;;;;;;;;23.22;25.16;103323.34;5038067;28;19944;-76
2024/01/12 05:40:07;;;;;;;;;;;;;;;23.21;25.39;103324.34;5033890;28;19913;-74
2024/01/12 05:42:32;;;;;;;;;;;;;;;23.23;25.35;103333.19;5040220;28;19952;-74
2024/01/12 05:44:57;;;;;;;;;;;;;;;23.23;25.54;103325.03;5045308;28;19921;-75
2024/01/12 05:47:22;;;;;;;;;;;;;;;23.24;25.28;103331.38;5041954;28;20445;-75
2024/01/12 05:49:47;;;;;;;;;;;;;;;23.24;25.40;103331.38;5041191;28;19927;-74
2024/01/12 05:52:13;;;;;;;;;;;;;;;23.21;25.56;103329.78;5037531;28;19984;-73
2024/01/12 05:54:38;;;;;;;;;;;;;;;23.19;25.62;103320.91;5030381;28;19917;-76
2024/01/12 05:57:04;;;;;;;;;;;;;;;23.16;25.76;103324.75;5045723;28;19924;-72
2024/01/12 05:59:29;;;;;;;;;;;;;;;23.18;25.80;103328.19;5047932;28;19925;-72
2024/01/12 06:01:54;;;;;;;;;;;;;;;23.17;25.95;103325.63;5039253;28;20016;-72
2024/01/12 06:04:20;;;;;;;;;;;;;;;23.17;25.96;103314.75;5044963;28;20016;-73
2024/01/12 06:06:46;;;;;;;;;;;;;;;23.16;25.85;103324.75;5037874;28;20647;-72
2024/01/12 06:09:11;;;;;;;;;;;;;;;23.18;25.89;103321.91;5040164;28;19924;-73
2024/01/12 06:11:36;;;;;;;;;;;;;;;23.18;26.04;103316.47;5041051;28;19925;-72
2024/01/12 06:14:02;;;;;;;;;;;;;;;23.19;25.87;103318.19;5043519;28;19917;-72
2024/01/12 06:16:28;;;;;;;;;;;;;;;23.19;25.92;103304.59;5042099;28;19917;-71
2024/01/12 06:18:53;;;;;;;;;;;;;;;23.22;25.97;103306.19;5040354;28;19960;-72
2024/01/12 06:21:18;;;;;;;;;;;;;;;23.22;26.07;103298.06;5045780;28;19961;-72
2024/01/12 06:23:43;;;;;;;;;;;;;;;23.22;26.04;103300.78;5043530;28;19921;-72
2024/01/12 06:26:08;;;;;;;;;;;;;;;23.22;25.97;103292.63;5045237;28;19925;-73
2024/01/12 06:28:34;;;;;;;;;;;;;;;23.21;26.11;103286.34;5043425;28;19924;-72
2024/01/12 06:30:59;;;;;;;;;;;;;;;23.20;26.19;103285.50;5045003;28;19917;-72
2024/01/12 06:33:24;;;;;;;;;;;;;;;23.17;26.36;103284.91;5044759;28;20825;-72
2024/01/12 06:35:50;;;;;;;;;;;;;;;23.15;26.39;103300.47;5038521;28;19929;-73
2024/01/12 06:38:15;;;;;;;;;;;;;;;23.14;26.45;103294.19;5040632;28;20012;-73
2024/01/12 06:40:40;;;;;;;;;;;;;;;23.16;26.18;103292.19;5040441;28;19927;-72
2024/01/12 06:43:05;;;;;;;;;;;;;;;23.16;26.43;103278.63;5035726;28;19917;-72
2024/01/12 06:45:30;;;;;;;;;;;;;;;23.14;26.39;103275.19;5034281;28;19925;-72
2024/01/12 06:47:56;;;;;;;;;;;;;;;23.09;26.33;103277.47;5039285;28;20397;-72
2024/01/12 06:50:21;;;;;;;;;;;;;;;23.10;26.39;103267.47;5040668;28;19923;-72
2024/01/12 06:52:46;;;;;;;;;;;;;;;23.09;26.29;103269.31;5043599;28;19924;-73
2024/01/12 06:55:11;;;;;;;;;;;;;;;23.09;26.33;103277.47;5042847;28;19917;-72
2024/01/12 06:57:36;;;;;;;;;;;;;;;23.09;26.62;103272.03;5047069;28;19923;-72
2024/01/12 07:00:04;;;;;;;;;;;;;;;23.12;26.30;103279.91;5041214;28;19929;-72
2024/01/12 07:02:29;;;;;;;;;;;;;;;23.16;26.23;103272.34;5046005;28;19920;-71
2024/01/12 07:04:54;;;;;;;;;;;;;;;23.18;26.35;103276.63;5044563;28;19929;-72
2024/01/12 07:07:19;;;;;;;;;;;;;;;23.24;26.34;103280.66;5041684;28;19960;-71
2024/01/12 07:09:45;;;;;;;;;;;;;;;23.27;26.13;103283.06;5039268;28;19920;-71
2024/01/12 07:12:10;;;;;;;;;;;;;;;23.29;26.05;103289.22;5043357;28;19940;-71
2024/01/12 07:14:36;;;;;;;;;;;;;;;23.28;26.80;103290.22;5037599;28;19981;-71
2024/01/12 07:17:01;;;;;;;;;;;;;;;23.30;26.38;103293.66;5036622;28;19921;-72
2024/01/12 07:19:26;;;;;;;;;;;;;;;23.29;26.16;103293.78;5034635;28;19921;-72
2024/01/12 07:21:51;;;;;;;;;;;;;;;23.25;26.34;103298.63;5036751;28;20271;-72
2024/01/12 07:24:16;;;;;;;;;;;;;;;23.19;26.38;103289.22;5042195;28;19913;-72
2024/01/12 07:26:41;;;;;;;;;;;;;;;23.23;26.52;103303.34;5042693;28;19916;-72
2024/01/12 07:29:07;;;;;;;;;;;;;;;23.25;26.28;103290.50;5038768;28;19918;-72
2024/01/12 07:31:35;;;;;;;;;;;;;;;23.25;26.38;103297.78;5036176;28;19913;-72
2024/01/12 07:34:00;;;;;;;;;;;;;;;23.24;26.14;103294.22;5030606;28;19948;-72
2024/01/12 07:36:25;;;;;;;;;;;;;;;23.16;26.42;103299.47;5039234;28;19913;-72
2024/01/12 07:38:51;;;;;;;;;;;;;;;23.17;26.29;103298.47;5037006;28;19944;-72
2024/01/12 07:41:16;;;;;;;;;;;;;;;23.13;26.61;103297.03;5044671;28;19909;-73
2024/01/12 07:43:41;;;;;;;;;;;;;;;23.16;26.61;103299.47;5034007;28;19932;-73
2024/01/12 07:46:06;;;;;;;;;;;;;;;23.18;26.35;103309.19;5038467;28;19918;-73
2024/01/12 07:48:31;;;;;;;;;;;;;;;23.20;26.31;103309.06;5035436;28;19924;-74
2024/01/12 07:50:56;;;;;;;;;;;;;;;23.24;26.28;103318.66;5036118;28;19957;-73
2024/01/12 07:53:22;;;;;;;;;;;;;;;23.28;26.52;103313.78;5040611;28;20011;-74
2024/01/12 07:55:49;;;;;;;;;;;;;;;23.31;26.28;103316.22;5037870;28;19913;-74
2024/01/12 07:58:18;;;;;;;;;;;;;;;23.36;26.27;103317.53;5038672;28;20439;-74
2024/01/12 08:00:43;;;;;;;;;;;;;;;23.35;26.38;103312.22;5042657;28;19917;-74
2024/01/12 08:03:08;;;;;;;;;;;;;;;23.33;26.46;103314.22;5041436;28;19989;-73
2024/01/12 08:05:33;;;;;;;;;;;;;;;23.27;26.46;103315.63;5031081;28;19922;-74
2024/01/12 08:07:59;;;;;;;;;;;;;;;23.25;26.36;103312.22;5042894;28;19924;-73
2024/01/12 08:10:24;;;;;;;;;;;;;;;23.23;26.52;103311.47;5044262;28;19970;-73
2024/01/12 08:12:49;;;;;;;;;;;;;;;23.19;26.54;103307.31;5043389;28;19924;-73
2024/01/12 08:15:15;;;;;;;;;;;;;;;23.18;26.49;103295.63;5039417;28;20019;-76
2024/01/12 08:17:40;;;;;;;;;;;;;;;23.18;26.62;103302.91;5038784;28;19917;-77
2024/01/12 08:20:05;;;;;;;;;;;;;;;23.19;26.72;103305.50;5036984;28;19979;-79
2024/01/12 08:22:32;;;;;;;;;;;;;;;23.21;26.57;103308.06;5035548;28;19925;-77
2024/01/12 08:24:57;;;;;;;;;;;;;;;23.23;26.56;103303.34;5030603;28;19925;-75
2024/01/12 08:27:22;;;;;;;;;;;;;;;23.25;26.50;103297.78;5037534;28;20083;-73
2024/01/12 08:29:47;;;;;;;;;;;;;;;23.27;26.52;103291.19;5038960;28;20397;-76
2024/01/12 08:32:12;;;;;;;;;;;;;;;23.30;26.45;103290.94;5037567;28;19925;-74
2024/01/12 08:34:39;;;;;;;;;;;;;;;23.34;26.44;103288.78;5039935;28;19921;-74
2024/01/12 08:37:04;;;;;;;;;;;;;;;23.35;26.43;103293.22;5042663;28;19922;-74
2024/01/12 08:39:29;;;;;;;;;;;;;;;23.34;26.57;103294.22;5040529;28;19935;-74
2024/01/12 08:41:55;;;;;;;;;;;;;;;23.36;26.17;103293.09;5042478;28;19925;-74
2024/01/12 08:44:20;;;;;;;;;;;;;;;23.35;26.55;103299.50;5043527;28;20061;-73
2024/01/12 08:46:45;;;;;;;;;;;;;;;23.31;26.56;103292.63;5038260;28;19917;-74
2024/01/12 08:49:11;;;;;;;;;;;;;;;23.33;26.42;103297.94;5032980;28;19913;-74
2024/01/12 08:51:36;;;;;;;;;;;;;;;23.35;26.43;103296.78;5033819;28;19913;-74
2024/01/12 08:54:01;;;;;;;;;;;;;;;23.39;26.52;103292.78;5031722;28;19964;-75
2024/01/12 08:56:26;;;;;;;;;;;;;;;23.40;26.50;103288.22;5034697;28;19921;-75
2024/01/12 08:58:51;;;;;;;;;;;;;;;23.40;26.18;103289.06;5035772;28;19921;-74
2024/01/12 09:01:18;;;;;;;;;;;;;;;23.43;26.22;103291.50;5038494;28;19916;-73
2024/01/12 09:03:43;;;;;;;;;;;;;;;23.45;26.23;103277.81;5040897;28;19936;-75
2024/01/12 09:06:09;;;;;;;;;;;;;;;23.49;26.40;103286.50;5039792;28;19921;-74
2024/01/12 09:08:35;;;;;;;;;;;;;;;23.50;26.17;103285.53;5041692;28;19921;-75
2024/01/12 09:11:01;;;;;;;;;;;;;;;23.51;26.36;103298.97;5039611;28;19923;-75
2024/01/12 09:13:26;;;;;;;;;;;;;;;23.55;25.97;103294.09;5035526;28;19921;-75
2024/01/12 09:15:51;;;;;;;;;;;;;;;23.54;25.99;103295.13;5037927;28;19951;-74
2024/01/12 09:18:16;;;;;;;;;;;;;;;23.53;26.20;103296.09;5044709;28;19920;-73
2024/01/12 09:20:41;;;;;;;;;;;;;;;23.55;26.02;103304.97;5047206;28;19940;-75
2024/01/12 09:23:07;;;;;;;;;;;;;;;23.55;25.89;103294.09;5039200;28;19921;-74
2024/01/12 09:25:32;;;;;;;;;;;;;;;23.55;26.33;103283.25;5040677;28;19925;-74
2024/01/12 09:27:57;;;;;;;;;;;;;;;23.57;26.02;103286.66;5038812;28;19921;-74
2024/01/12 09:30:22;;;;;;;;;;;;;;;23.55;26.07;103289.53;5041178;28;20008;-75
2024/01/12 09:32:48;;;;;;;;;;;;;;;23.57;26.30;103287.53;5044352;28;19984;-74
2024/01/12 09:35:13;;;;;;;;;;;;;;;23.54;25.88;103290.53;5041237;28;19927;-74
2024/01/12 09:37:38;;;;;;;;;;;;;;;23.55;26.11;103283.25;5039146;28;19921;-74
2024/01/12 09:40:04;;;;;;;;;;;;;;;23.53;26.04;103275.22;5041146;28;19920;-75
2024/01/12 09:42:31;;;;;;;;;;;;;;;23.53;26.18;103274.38;5043111;28;19975;-74
2024/01/12 09:44:56;;;;;;;;;;;;;;;23.54;25.91;103274.25;5040552;28;19921;-72
2024/01/12 09:47:21;;;;;;;;;;;;;;;23.53;26.36;103279.78;5045579;28;19928;-72
2024/01/12 09:49:46;;;;;;;;;;;;;;;23.55;26.33;103283.25;5049208;28;19917;-72
2024/01/12 09:52:11;;;;;;;;;;;;;;;23.55;26.33;103280.53;5045823;28;19976;-71
2024/01/12 09:54:37;;;;;;;;;;;;;;;23.56;26.20;103274.94;5042763;28;19923;-73
2024/01/12 09:57:03;;;;;;;;;;;;;;;23.56;26.03;103276.81;5036398;28;19917;-74
2024/01/12 09:59:28;;;;;;;;;;;;;;;23.52;26.24;103273.50;5039842;28;19927;-74
2024/01/12 10:01:53;;;;;;;;;;;;;;;23.52;26.39;103272.66;5041744;28;20008;-74
2024/01/12 10:04:18;;;;;;;;;;;;;;;23.52;26.32;103280.81;5035014;28;19941;-74
2024/01/12 10:06:44;;;;;;;;;;;;;;;23.52;26.49;103281.66;5040605;28;19936;-76
2024/01/12 10:09:09;;;;;;;;;;;;;;;23.51;26.12;103271.81;5041737;28;19917;-75
2024/01/12 10:11:34;;;;;;;;;;;;;;;23.56;26.24;103274.09;5040442;28;19944;-77
2024/01/12 10:13:59;;;;;;;;;;;;;;;23.57;26.03;103270.38;5038812;28;19917;-74
2024/01/12 10:16:29;;;;;;;;;;;;;;;23.58;26.18;103272.97;5043449;28;19923;-74
2024/01/12 10:18:55;;;;;;;;;;;;;;;23.55;26.11;103275.97;5046036;28;19917;-75
2024/01/12 10:21:20;;;;;;;;;;;;;;;23.56;26.35;103271.38;5042959;28;19921;-75
2024/01/12 10:23:45;;;;;;;;;;;;;;;23.57;26.35;103273.09;5039617;28;19944;-75
2024/01/12 10:26:12;;;;;;;;;;;;;;;23.57;26.14;103270.38;5040964;28;20448;-75
2024/01/12 10:28:40;;;;;;;;;;;;;;;23.58;26.23;103272.09;5036256;28;19993;-74
2024/01/12 10:31:06;;;;;;;;;;;;;;;23.58;26.36;103281.13;5034453;28;19967;-74
2024/01/12 10:33:32;;;;;;;;;;;;;;;23.58;25.96;103272.09;5038538;28;19914;-75
2024/01/12 10:36:16;;;;;;;;;;;;;;;23.57;26.24;103271.22;5033236;28;19919;-76
2024/01/12 10:38:41;;;;;;;;;;;;;;;23.56;26.43;103279.53;5035719;28;19960;-75
2024/01/12 10:41:07;;;;;;;;;;;;;;;23.57;26.29;103278.50;5039920;28;20393;-75
2024/01/12 10:43:36;;;;;;;;;;;;;;;23.57;26.33;103273.94;5048883;28;20387;-76
2024/01/12 10:46:02;;;;;;;;;;;;;;;23.57;26.02;103282.09;5024267;28;19928;-76
2024/01/12 10:48:27;;;;;;;;;;;;;;;23.58;26.20;103267.53;5038958;28;19971;-75
2024/01/12 10:50:55;;;;;;;;;;;;;;;23.60;26.17;103273.66;5042741;28;19925;-74
2024/01/12 10:53:21;;;;;;;;;;;;;;;23.62;26.15;103266.25;5033359;28;19925;-75
2024/01/12 10:55:51;;;;;;;;;;;;;;;23.60;26.35;103273.66;5033638;28;19918;-75
2024/01/12 10:58:16;;;;;;;;;;;;;;;23.60;26.26;103268.22;5027569;28;19948;-74
2024/01/12 11:00:41;;;;;;;;;;;;;;;23.62;26.40;103270.81;5036243;28;19940;-75
2024/01/12 11:03:06;;;;;;;;;;;;;;;23.64;26.06;103266.09;5036742;28;19917;-74
2024/01/12 11:05:32;;;;;;;;;;;;;;;23.67;26.21;103269.41;5040808;28;19979;-74
2024/01/12 11:07:58;;;;;;;;;;;;;;;23.72;26.02;103265.41;5038792;28;20290;-75
2024/01/12 11:10:24;;;;;;;;;;;;;;;23.75;25.92;103268.72;5042819;28;19928;-76
2024/01/12 11:12:50;;;;;;;;;;;;;;;23.75;26.29;103249.69;5021506;28;19917;-77
2024/01/12 11:15:15;;;;;;;;;;;;;;;23.77;26.06;103255.81;5048494;28;20415;-76
2024/01/12 11:17:41;;;;;;;;;;;;;;;23.80;26.04;103255.53;5045324;28;19917;-77
2024/01/12 11:20:09;;;;;;;;;;;;;;;23.81;25.94;103253.69;5030259;28;19944;-76
2024/01/12 11:22:35;;;;;;;;;;;;;;;23.85;25.89;103245.09;5031067;28;19961;-75
2024/01/12 11:25:00;;;;;;;;;;;;;;;23.87;25.93;103250.38;5035742;28;19917;-75
2024/01/12 11:27:38;;;;;;;;;;;;;;;23.85;25.96;103258.69;5029935;28;19918;-77
2024/01/12 11:30:04;;;;;;;;;;;;;;;23.85;25.87;103239.66;5044097;28;19924;-76
2024/01/12 11:32:30;;;;;;;;;;;;;;;23.84;25.83;103239.81;5042463;28;20336;-73
2024/01/12 11:35:12;;;;;;;;;;;;;;;23.82;26.04;103253.53;5028475;28;19917;-74
2024/01/12 11:37:37;;;;;;;;;;;;;;;23.85;26.15;103241.53;5038223;28;19924;-76
2024/01/12 11:40:10;;;;;;;;;;;;;;;23.84;26.05;103231.66;5041939;28;19921;-75
2024/01/12 11:42:37;;;;;;;;;;;;;;;23.44;26.24;103159.34;5041255;28;19913;-75
2024/01/12 11:45:04;;;;;;;;;;;;;;;23.83;26.06;103217.22;5033166;28;19926;-77
2024/01/12 11:47:29;;;;;;;;;;;;;;;23.87;25.99;103220.47;5041327;28;19924;-74
2024/01/12 11:49:55;;;;;;;;;;;;;;;23.91;26.08;103221.91;5044823;28;19913;-74
2024/01/12 11:52:20;;;;;;;;;;;;;;;23.95;26.27;103223.34;5031565;28;19920;-75
2024/01/12 11:54:45;;;;;;;;;;;;;;;23.97;26.19;103215.06;5047224;28;19960;-74
2024/01/12 11:57:11;;;;;;;;;;;;;;;23.93;26.09;103201.75;5030867;28;19935;-75
2024/01/12 11:59:37;;;;;;;;;;;;;;;23.92;25.97;103201.91;5047711;28;20389;-76
2024/01/12 12:02:04;;;;;;;;;;;;;;;23.89;26.26;103204.91;5038624;28;19917;-73
2024/01/12 12:04:30;;;;;;;;;;;;;;;23.91;26.10;103197.44;5042900;28;19917;-73
2024/01/12 12:06:55;;;;;;;;;;;;;;;23.95;26.11;103197.00;5043166;28;19984;-73
2024/01/12 12:09:21;;;;;;;;;;;;;;;23.98;26.15;103189.59;5036654;28;19924;-73
2024/01/12 12:11:48;;;;;;;;;;;;;;;23.96;26.15;103184.31;5037962;28;19917;-73
2024/01/12 12:14:13;;;;;;;;;;;;;;;23.99;26.05;103183.13;5037422;28;19913;-73
2024/01/12 12:16:38;;;;;;;;;;;;;;;23.98;26.42;103176.84;5033153;28;19975;-73
2024/01/12 12:19:04;;;;;;;;;;;;;;;24.01;26.31;103164.84;5036195;28;19917;-72
2024/01/12 12:21:29;;;;;;;;;;;;;;;24.04;26.17;103167.25;5034790;28;19913;-73
2024/01/12 12:23:57;;;;;;;;;;;;;;;24.07;26.33;103165.09;5033843;28;20047;-74
2024/01/12 12:26:23;;;;;;;;;;;;;;;24.05;26.16;103161.69;5039184;28;19977;-76